sensor_id;sensor_type;location;lat;lon;timestamp;pressure;altitude;pressure_sealevel;temperature;humidity
75425;BME280;64007;50.632;13.700;2023-05-28T00:01:30;98471.59;;;10.47;75.51
75425;BME280;64007;50.632;13.700;2023-05-28T00:03:56;98473.09;;;10.39;75.59
75425;BME280;64007;50.632;13.700;2023-05-28T00:06:21;98467.88;;;10.37;75.31
75425;BME280;64007;50.632;13.700;2023-05-28T00:08:47;98465.22;;;10.37;77.56
75425;BME280;64007;50.632;13.700;2023-05-28T00:11:13;98465.66;;;10.44;77.58
75425;BME280;64007;50.632;13.700;2023-05-28T00:13:38;98462.47;;;10.39;76.61
75425;BME280;64007;50.632;13.700;2023-05-28T00:16:04;98461.22;;;10.31;76.70
75425;BME280;64007;50.632;13.700;2023-05-28T00:18:30;98461.41;;;10.41;77.88
75425;BME280;64007;50.632;13.700;2023-05-28T00:20:56;98463.75;;;10.33;77.76
75425;BME280;64007;50.632;13.700;2023-05-28T00:23:21;98453.06;;;10.22;79.04
75425;BME280;64007;50.632;13.700;2023-05-28T00:25:48;98457.63;;;10.20;78.85
75425;BME280;64007;50.632;13.700;2023-05-28T00:28:13;98452.53;;;10.17;80.21
75425;BME280;64007;50.632;13.700;2023-05-28T00:30:39;98449.88;;;10.17;80.03
75425;BME280;64007;50.632;13.700;2023-05-28T00:33:05;98459.75;;;10.15;81.40
75425;BME280;64007;50.632;13.700;2023-05-28T00:35:31;98443.06;;;10.13;80.52
75425;BME280;64007;50.632;13.700;2023-05-28T00:37:56;98455.19;;;10.17;79.51
75425;BME280;64007;50.632;13.700;2023-05-28T00:40:22;98457.22;;;10.13;84.23
75425;BME280;64007;50.632;13.700;2023-05-28T00:42:48;98452.97;;;10.11;83.92
75425;BME280;64007;50.632;13.700;2023-05-28T00:45:14;98446.19;;;10.07;83.28
75425;BME280;64007;50.632;13.700;2023-05-28T00:47:40;98448.31;;;10.01;83.72
75425;BME280;64007;50.632;13.700;2023-05-28T00:50:07;98444.03;;;9.99;83.43
75425;BME280;64007;50.632;13.700;2023-05-28T00:52:35;98450.44;;;9.96;83.53
75425;BME280;64007;50.632;13.700;2023-05-28T00:55:01;98440.03;;;9.93;81.95
75425;BME280;64007;50.632;13.700;2023-05-28T00:57:27;98447.16;;;9.93;84.05
75425;BME280;64007;50.632;13.700;2023-05-28T00:59:53;98438.56;;;9.89;82.61
75425;BME280;64007;50.632;13.700;2023-05-28T01:02:23;98438.56;;;9.89;81.42
75425;BME280;64007;50.632;13.700;2023-05-28T01:04:48;98431.97;;;9.82;82.53
75425;BME280;64007;50.632;13.700;2023-05-28T01:07:16;98433.06;;;9.80;82.22
75425;BME280;64007;50.632;13.700;2023-05-28T01:09:42;98439.22;;;9.80;81.67
75425;BME280;64007;50.632;13.700;2023-05-28T01:12:08;98434.13;;;9.77;81.93
75425;BME280;64007;50.632;13.700;2023-05-28T01:14:35;98422.03;;;9.73;81.17
75425;BME280;64007;50.632;13.700;2023-05-28T01:17:04;98421.78;;;9.76;83.89
75425;BME280;64007;50.632;13.700;2023-05-28T01:19:30;98422.03;;;9.73;83.72
75425;BME280;64007;50.632;13.700;2023-05-28T01:22:05;98418.72;;;9.69;82.21
75425;BME280;64007;50.632;13.700;2023-05-28T01:24:40;98414.59;;;9.65;83.47
75425;BME280;64007;50.632;13.700;2023-05-28T01:27:06;98414.81;;;9.62;83.29
75425;BME280;64007;50.632;13.700;2023-05-28T01:29:32;98419.06;;;9.65;82.05
75425;BME280;64007;50.632;13.700;2023-05-28T01:31:58;98414.81;;;9.62;81.61
75425;BME280;64007;50.632;13.700;2023-05-28T01:34:23;98413.75;;;9.65;83.05
75425;BME280;64007;50.632;13.700;2023-05-28T01:37:00;98408.66;;;9.62;81.50
75425;BME280;64007;50.632;13.700;2023-05-28T01:39:30;98408.09;;;9.57;80.54
75425;BME280;64007;50.632;13.700;2023-05-28T01:41:59;98409.91;;;9.56;80.85
75425;BME280;64007;50.632;13.700;2023-05-28T01:44:25;98408.09;;;9.57;81.37
75425;BME280;64007;50.632;13.700;2023-05-28T01:46:51;98409.81;;;9.58;80.65
75425;BME280;64007;50.632;13.700;2023-05-28T01:49:21;98403.53;;;9.59;81.37
75425;BME280;64007;50.632;13.700;2023-05-28T01:51:47;98407.38;;;9.55;80.04
75425;BME280;64007;50.632;13.700;2023-05-28T01:54:13;98405.66;;;9.54;80.55
75425;BME280;64007;50.632;13.700;2023-05-28T01:56:39;98402.16;;;9.53;81.08
75425;BME280;64007;50.632;13.700;2023-05-28T01:59:04;98405.88;;;9.51;80.15
75425;BME280;64007;50.632;13.700;2023-05-28T02:01:31;98402.72;;;9.46;80.89
75425;BME280;64007;50.632;13.700;2023-05-28T02:03:59;98401.75;;;9.47;80.79
75425;BME280;64007;50.632;13.700;2023-05-28T02:06:28;98399.63;;;9.52;82.07
75425;BME280;64007;50.632;13.700;2023-05-28T02:08:54;98393.56;;;9.50;82.26
75425;BME280;64007;50.632;13.700;2023-05-28T02:11:20;98394.22;;;9.40;81.72
75425;BME280;64007;50.632;13.700;2023-05-28T02:13:47;98381.91;;;9.39;82.56
75425;BME280;64007;50.632;13.700;2023-05-28T02:16:14;98391.03;;;9.48;83.92
75425;BME280;64007;50.632;13.700;2023-05-28T02:18:46;98383.19;;;9.47;84.38
75425;BME280;64007;50.632;13.700;2023-05-28T02:21:17;98387.00;;;9.42;83.43
75425;BME280;64007;50.632;13.700;2023-05-28T02:23:46;98392.53;;;9.39;84.48
75425;BME280;64007;50.632;13.700;2023-05-28T02:26:12;98378.94;;;9.31;84.36
75425;BME280;64007;50.632;13.700;2023-05-28T02:28:39;98377.69;;;9.24;85.35
75425;BME280;64007;50.632;13.700;2023-05-28T02:31:06;98378.94;;;9.19;84.71
75425;BME280;64007;50.632;13.700;2023-05-28T02:33:31;98383.22;;;9.21;84.63
75425;BME280;64007;50.632;13.700;2023-05-28T02:35:58;98388.69;;;9.18;85.33
75425;BME280;64007;50.632;13.700;2023-05-28T02:38:24;98381.91;;;9.14;84.95
75425;BME280;64007;50.632;13.700;2023-05-28T02:40:50;98383.81;;;9.12;84.87
75425;BME280;64007;50.632;13.700;2023-05-28T02:43:15;98380.44;;;9.10;85.54
75425;BME280;64007;50.632;13.700;2023-05-28T02:45:41;98381.28;;;9.10;86.48
75425;BME280;64007;50.632;13.700;2023-05-28T02:48:07;98382.56;;;9.05;87.43
75425;BME280;64007;50.632;13.700;2023-05-28T02:50:33;98379.91;;;9.05;87.60
75425;BME280;64007;50.632;13.700;2023-05-28T02:52:58;98378.72;;;9.09;87.88
75425;BME280;64007;50.632;13.700;2023-05-28T02:55:24;98377.78;;;9.10;86.57
75425;BME280;64007;50.632;13.700;2023-05-28T02:57:50;98378.53;;;9.12;84.71
75425;BME280;64007;50.632;13.700;2023-05-28T03:00:18;98387.22;;;9.14;85.32
75425;BME280;64007;50.632;13.700;2023-05-28T03:02:45;98385.41;;;9.15;85.57
75425;BME280;64007;50.632;13.700;2023-05-28T03:05:10;98393.47;;;9.13;86.37
75425;BME280;64007;50.632;13.700;2023-05-28T03:07:36;98391.88;;;9.10;84.86
75425;BME280;64007;50.632;13.700;2023-05-28T03:10:02;98384.25;;;9.06;86.03
75425;BME280;64007;50.632;13.700;2023-05-28T03:12:28;98392.00;;;9.09;89.02
75425;BME280;64007;50.632;13.700;2023-05-28T03:14:54;98385.22;;;9.05;86.48
75425;BME280;64007;50.632;13.700;2023-05-28T03:17:19;98388.72;;;9.05;88.22
75425;BME280;64007;50.632;13.700;2023-05-28T03:19:45;98394.88;;;9.06;90.52
75425;BME280;64007;50.632;13.700;2023-05-28T03:22:10;98384.66;;;9.13;85.44
75425;BME280;64007;50.632;13.700;2023-05-28T03:24:36;98399.00;;;9.10;88.86
75425;BME280;64007;50.632;13.700;2023-05-28T03:27:04;98387.66;;;9.08;87.25
75425;BME280;64007;50.632;13.700;2023-05-28T03:29:31;98386.16;;;9.04;86.99
75425;BME280;64007;50.632;13.700;2023-05-28T03:31:57;98400.38;;;9.03;88.61
75425;BME280;64007;50.632;13.700;2023-05-28T03:34:23;98393.16;;;9.05;89.78
75425;BME280;64007;50.632;13.700;2023-05-28T03:36:49;98396.03;;;9.02;87.76
75425;BME280;64007;50.632;13.700;2023-05-28T03:39:15;98391.47;;;9.04;86.92
75425;BME280;64007;50.632;13.700;2023-05-28T03:41:41;98400.47;;;9.01;87.94
75425;BME280;64007;50.632;13.700;2023-05-28T03:44:07;98396.97;;;9.01;89.50
75425;BME280;64007;50.632;13.700;2023-05-28T03:46:33;98391.69;;;9.01;89.46
75425;BME280;64007;50.632;13.700;2023-05-28T03:48:59;98386.38;;;9.01;87.13
75425;BME280;64007;50.632;13.700;2023-05-28T03:51:24;98392.09;;;8.95;89.91
75425;BME280;64007;50.632;13.700;2023-05-28T03:53:50;98392.31;;;8.92;94.66
75425;BME280;64007;50.632;13.700;2023-05-28T03:56:16;98381.91;;;8.89;90.60
75425;BME280;64007;50.632;13.700;2023-05-28T03:58:42;98383.63;;;8.90;93.29
75425;BME280;64007;50.632;13.700;2023-05-28T04:01:08;98388.50;;;8.96;91.17
75425;BME280;64007;50.632;13.700;2023-05-28T04:03:35;98391.78;;;8.99;90.57
75425;BME280;64007;50.632;13.700;2023-05-28T04:06:00;98382.44;;;8.94;94.31
75425;BME280;64007;50.632;13.700;2023-05-28T04:08:28;98377.88;;;8.96;90.87
75425;BME280;64007;50.632;13.700;2023-05-28T04:10:54;98379.16;;;9.03;91.38
75425;BME280;64007;50.632;13.700;2023-05-28T04:13:20;98397.31;;;9.09;92.33
75425;BME280;64007;50.632;13.700;2023-05-28T04:15:45;98391.03;;;9.10;91.58
75425;BME280;64007;50.632;13.700;2023-05-28T04:18:11;98386.38;;;9.14;92.72
75425;BME280;64007;50.632;13.700;2023-05-28T04:20:37;98391.34;;;9.18;94.78
75425;BME280;64007;50.632;13.700;2023-05-28T04:23:03;98390.97;;;9.24;92.64
75425;BME280;64007;50.632;13.700;2023-05-28T04:25:29;98388.09;;;9.27;93.78
75425;BME280;64007;50.632;13.700;2023-05-28T04:27:55;98389.34;;;9.34;94.84
75425;BME280;64007;50.632;13.700;2023-05-28T04:30:22;98381.28;;;9.36;96.42
75425;BME280;64007;50.632;13.700;2023-05-28T04:32:50;98385.09;;;9.45;95.79
75425;BME280;64007;50.632;13.700;2023-05-28T04:35:19;98382.75;;;9.53;98.74
75425;BME280;64007;50.632;13.700;2023-05-28T04:37:45;98377.22;;;9.56;96.08
75425;BME280;64007;50.632;13.700;2023-05-28T04:40:11;98380.09;;;9.65;94.22
75425;BME280;64007;50.632;13.700;2023-05-28T04:42:38;98381.34;;;9.72;93.16
75425;BME280;64007;50.632;13.700;2023-05-28T04:45:05;98373.03;;;9.77;95.00
75425;BME280;64007;50.632;13.700;2023-05-28T04:47:31;98380.34;;;9.86;95.65
75425;BME280;64007;50.632;13.700;2023-05-28T04:49:57;98377.97;;;9.94;92.57
75425;BME280;64007;50.632;13.700;2023-05-28T04:52:23;98382.84;;;10.00;90.94
75425;BME280;64007;50.632;13.700;2023-05-28T04:54:49;98374.34;;;10.08;86.85
75425;BME280;64007;50.632;13.700;2023-05-28T04:57:15;98374.72;;;10.15;86.78
75425;BME280;64007;50.632;13.700;2023-05-28T04:59:41;98381.50;;;10.19;89.03
75425;BME280;64007;50.632;13.700;2023-05-28T05:02:07;98374.56;;;10.53;87.23
75425;BME280;64007;50.632;13.700;2023-05-28T05:04:34;98377.34;;;10.51;87.61
75425;BME280;64007;50.632;13.700;2023-05-28T05:06:59;98381.50;;;10.66;86.99
75425;BME280;64007;50.632;13.700;2023-05-28T05:09:26;98373.19;;;10.71;85.52
75425;BME280;64007;50.632;13.700;2023-05-28T05:11:52;98371.09;;;10.63;84.78
75425;BME280;64007;50.632;13.700;2023-05-28T05:14:18;98366.28;;;10.68;88.16
75425;BME280;64007;50.632;13.700;2023-05-28T05:16:44;98371.50;;;10.70;88.74
75425;BME280;64007;50.632;13.700;2023-05-28T05:19:11;98379.16;;;10.86;87.77
75425;BME280;64007;50.632;13.700;2023-05-28T05:21:37;98368.06;;;11.03;87.05
75425;BME280;64007;50.632;13.700;2023-05-28T05:24:02;98379.69;;;11.02;90.12
75425;BME280;64007;50.632;13.700;2023-05-28T05:26:28;98389.13;;;11.06;90.38
75425;BME280;64007;50.632;13.700;2023-05-28T05:28:54;98373.41;;;11.03;90.06
75425;BME280;64007;50.632;13.700;2023-05-28T05:31:19;98378.72;;;11.03;89.37
75425;BME280;64007;50.632;13.700;2023-05-28T05:33:45;98368.91;;;11.04;88.22
75425;BME280;64007;50.632;13.700;2023-05-28T05:36:11;98375.81;;;11.17;90.20
75425;BME280;64007;50.632;13.700;2023-05-28T05:38:37;98373.44;;;11.48;87.84
75425;BME280;64007;50.632;13.700;2023-05-28T05:41:03;98364.25;;;11.52;88.26
75425;BME280;64007;50.632;13.700;2023-05-28T05:43:29;98359.88;;;11.51;87.09
75425;BME280;64007;50.632;13.700;2023-05-28T05:45:54;98360.59;;;11.53;89.43
75425;BME280;64007;50.632;13.700;2023-05-28T05:48:20;98362.78;;;11.70;91.79
75425;BME280;64007;50.632;13.700;2023-05-28T05:50:49;98363.53;;;11.83;88.18
75425;BME280;64007;50.632;13.700;2023-05-28T05:53:16;98364.97;;;11.87;88.68
75425;BME280;64007;50.632;13.700;2023-05-28T05:55:42;98356.84;;;11.89;91.50
75425;BME280;64007;50.632;13.700;2023-05-28T05:58:08;98358.66;;;12.00;93.86
75425;BME280;64007;50.632;13.700;2023-05-28T06:00:33;98357.56;;;12.02;92.32
75425;BME280;64007;50.632;13.700;2023-05-28T06:02:59;98358.34;;;12.25;89.14
75425;BME280;64007;50.632;13.700;2023-05-28T06:05:26;98349.19;;;12.39;85.07
75425;BME280;64007;50.632;13.700;2023-05-28T06:07:52;98353.59;;;12.61;81.63
75425;BME280;64007;50.632;13.700;2023-05-28T06:10:18;98350.63;;;12.54;81.04
75425;BME280;64007;50.632;13.700;2023-05-28T06:12:44;98354.63;;;12.48;79.76
75425;BME280;64007;50.632;13.700;2023-05-28T06:15:10;98356.47;;;12.48;80.86
75425;BME280;64007;50.632;13.700;2023-05-28T06:17:37;98352.16;;;12.57;81.66
75425;BME280;64007;50.632;13.700;2023-05-28T06:20:03;98356.72;;;12.66;81.26
75425;BME280;64007;50.632;13.700;2023-05-28T06:22:32;98361.75;;;12.80;80.85
75425;BME280;64007;50.632;13.700;2023-05-28T06:24:58;98360.81;;;12.81;81.67
75425;BME280;64007;50.632;13.700;2023-05-28T06:27:26;98361.97;;;12.88;81.71
75425;BME280;64007;50.632;13.700;2023-05-28T06:29:53;98361.56;;;13.13;78.52
75425;BME280;64007;50.632;13.700;2023-05-28T06:32:19;98357.31;;;13.11;78.71
75425;BME280;64007;50.632;13.700;2023-05-28T06:34:44;98356.06;;;13.26;76.34
75425;BME280;64007;50.632;13.700;2023-05-28T06:37:11;98357.53;;;13.40;74.06
75425;BME280;64007;50.632;13.700;2023-05-28T06:39:37;98363.13;;;13.37;74.76
75425;BME280;64007;50.632;13.700;2023-05-28T06:42:03;98363.16;;;13.46;73.70
75425;BME280;64007;50.632;13.700;2023-05-28T06:44:29;98358.22;;;13.72;66.11
75425;BME280;64007;50.632;13.700;2023-05-28T06:46:55;98354.56;;;13.73;64.59
75425;BME280;64007;50.632;13.700;2023-05-28T06:49:20;98354.75;;;13.91;69.12
75425;BME280;64007;50.632;13.700;2023-05-28T06:51:46;98360.59;;;14.06;69.15
75425;BME280;64007;50.632;13.700;2023-05-28T06:54:12;98358.63;;;14.08;68.09
75425;BME280;64007;50.632;13.700;2023-05-28T06:56:37;98350.22;;;14.41;64.96
75425;BME280;64007;50.632;13.700;2023-05-28T06:59:03;98357.00;;;14.55;63.14
75425;BME280;64007;50.632;13.700;2023-05-28T07:01:29;98352.78;;;14.62;63.64
75425;BME280;64007;50.632;13.700;2023-05-28T07:03:54;98357.69;;;14.77;64.25
75425;BME280;64007;50.632;13.700;2023-05-28T07:06:20;98352.03;;;15.09;59.95
75425;BME280;64007;50.632;13.700;2023-05-28T07:08:47;98353.84;;;15.08;62.13
75425;BME280;64007;50.632;13.700;2023-05-28T07:11:13;98357.13;;;15.02;60.78
75425;BME280;64007;50.632;13.700;2023-05-28T07:13:39;98358.81;;;15.03;59.26
75425;BME280;64007;50.632;13.700;2023-05-28T07:16:06;98365.72;;;15.05;58.12
75425;BME280;64007;50.632;13.700;2023-05-28T07:18:32;98351.16;;;15.18;61.54
75425;BME280;64007;50.632;13.700;2023-05-28T07:20:58;98355.78;;;15.35;59.44
75425;BME280;64007;50.632;13.700;2023-05-28T07:23:24;98358.56;;;15.43;58.76
75425;BME280;64007;50.632;13.700;2023-05-28T07:25:50;98355.44;;;15.48;58.12
75425;BME280;64007;50.632;13.700;2023-05-28T07:28:16;98353.63;;;15.48;56.23
75425;BME280;64007;50.632;13.700;2023-05-28T07:30:42;98354.31;;;15.50;56.30
75425;BME280;64007;50.632;13.700;2023-05-28T07:33:08;98356.41;;;15.56;55.72
75425;BME280;64007;50.632;13.700;2023-05-28T07:35:33;98348.94;;;15.60;57.53
75425;BME280;64007;50.632;13.700;2023-05-28T07:38:01;98348.63;;;15.73;55.25
75425;BME280;64007;50.632;13.700;2023-05-28T07:40:27;98353.47;;;15.87;52.47
75425;BME280;64007;50.632;13.700;2023-05-28T07:42:52;98358.94;;;15.95;55.50
75425;BME280;64007;50.632;13.700;2023-05-28T07:45:18;98356.38;;;16.03;53.21
75425;BME280;64007;50.632;13.700;2023-05-28T07:47:43;98356.47;;;16.11;53.55
75425;BME280;64007;50.632;13.700;2023-05-28T07:50:10;98359.00;;;16.30;53.46
75425;BME280;64007;50.632;13.700;2023-05-28T07:52:36;98357.00;;;16.33;51.83
75425;BME280;64007;50.632;13.700;2023-05-28T07:55:02;98350.91;;;16.58;53.10
75425;BME280;64007;50.632;13.700;2023-05-28T07:57:29;98355.91;;;16.53;52.41
75425;BME280;64007;50.632;13.700;2023-05-28T07:59:55;98352.22;;;16.54;52.80
75425;BME280;64007;50.632;13.700;2023-05-28T08:02:21;98356.81;;;16.61;53.03
75425;BME280;64007;50.632;13.700;2023-05-28T08:04:48;98356.91;;;16.87;49.70
75425;BME280;64007;50.632;13.700;2023-05-28T08:07:14;98356.44;;;16.74;48.26
75425;BME280;64007;50.632;13.700;2023-05-28T08:09:40;98358.91;;;16.85;49.57
75425;BME280;64007;50.632;13.700;2023-05-28T08:12:07;98364.72;;;16.99;50.01
75425;BME280;64007;50.632;13.700;2023-05-28T08:14:33;98344.84;;;16.91;48.15
75425;BME280;64007;50.632;13.700;2023-05-28T08:16:59;98354.59;;;16.92;47.63
75425;BME280;64007;50.632;13.700;2023-05-28T08:19:25;98341.59;;;17.06;48.54
75425;BME280;64007;50.632;13.700;2023-05-28T08:21:52;98341.84;;;17.20;48.98
75425;BME280;64007;50.632;13.700;2023-05-28T08:24:18;98335.75;;;17.36;49.22
75425;BME280;64007;50.632;13.700;2023-05-28T08:26:46;98344.66;;;17.63;48.31
75425;BME280;64007;50.632;13.700;2023-05-28T08:29:12;98341.41;;;17.85;49.95
75425;BME280;64007;50.632;13.700;2023-05-28T08:31:37;98340.44;;;17.94;48.55
75425;BME280;64007;50.632;13.700;2023-05-28T08:34:03;98338.75;;;17.93;49.23
75425;BME280;64007;50.632;13.700;2023-05-28T08:36:29;98338.09;;;17.99;49.59
75425;BME280;64007;50.632;13.700;2023-05-28T08:38:55;98336.75;;;17.95;45.82
75425;BME280;64007;50.632;13.700;2023-05-28T08:41:22;98338.44;;;17.96;47.39
75425;BME280;64007;50.632;13.700;2023-05-28T08:43:48;98345.28;;;18.33;47.62
75425;BME280;64007;50.632;13.700;2023-05-28T08:46:15;98335.47;;;18.07;45.18
75425;BME280;64007;50.632;13.700;2023-05-28T08:48:41;98336.66;;;18.21;45.75
75425;BME280;64007;50.632;13.700;2023-05-28T08:51:07;98322.03;;;18.15;45.72
75425;BME280;64007;50.632;13.700;2023-05-28T08:53:43;98321.03;;;18.33;48.79
75425;BME280;64007;50.632;13.700;2023-05-28T08:56:10;98322.63;;;18.68;46.59
75425;BME280;64007;50.632;13.700;2023-05-28T08:58:37;98320.78;;;18.68;47.25
75425;BME280;64007;50.632;13.700;2023-05-28T09:01:05;98319.78;;;18.69;46.74
75425;BME280;64007;50.632;13.700;2023-05-28T09:03:36;98313.03;;;18.73;45.40
75425;BME280;64007;50.632;13.700;2023-05-28T09:06:03;98313.91;;;18.82;48.69
75425;BME280;64007;50.632;13.700;2023-05-28T09:08:29;98314.56;;;18.92;46.06
75425;BME280;64007;50.632;13.700;2023-05-28T09:10:56;98308.34;;;18.92;45.19
75425;BME280;64007;50.632;13.700;2023-05-28T09:13:23;98311.31;;;19.13;44.70
75425;BME280;64007;50.632;13.700;2023-05-28T09:15:51;98308.31;;;19.24;44.25
75425;BME280;64007;50.632;13.700;2023-05-28T09:18:20;98309.28;;;19.31;44.31
75425;BME280;64007;50.632;13.700;2023-05-28T09:20:48;98301.88;;;19.33;44.53
75425;BME280;64007;50.632;13.700;2023-05-28T09:23:16;98307.56;;;19.47;44.86
75425;BME280;64007;50.632;13.700;2023-05-28T09:25:43;98312.34;;;19.84;43.33
75425;BME280;64007;50.632;13.700;2023-05-28T09:28:13;98305.44;;;19.81;42.31
75425;BME280;64007;50.632;13.700;2023-05-28T09:30:39;98302.69;;;19.89;43.63
75425;BME280;64007;50.632;13.700;2023-05-28T09:33:06;98303.19;;;19.93;43.92
75425;BME280;64007;50.632;13.700;2023-05-28T09:35:33;98299.75;;;20.07;42.38
75425;BME280;64007;50.632;13.700;2023-05-28T09:38:06;98298.63;;;20.01;42.71
75425;BME280;64007;50.632;13.700;2023-05-28T09:40:42;98288.69;;;20.25;40.68
75425;BME280;64007;50.632;13.700;2023-05-28T09:43:08;98290.78;;;20.15;39.65
75425;BME280;64007;50.632;13.700;2023-05-28T09:45:35;98293.53;;;20.07;37.70
75425;BME280;64007;50.632;13.700;2023-05-28T09:48:01;98285.31;;;20.23;39.63
75425;BME280;64007;50.632;13.700;2023-05-28T09:50:27;98288.91;;;20.15;38.20
75425;BME280;64007;50.632;13.700;2023-05-28T09:52:56;98284.06;;;20.11;39.82
75425;BME280;64007;50.632;13.700;2023-05-28T09:55:27;98282.25;;;20.26;41.79
75425;BME280;64007;50.632;13.700;2023-05-28T09:58:04;98284.34;;;20.47;44.48
75425;BME280;64007;50.632;13.700;2023-05-28T10:00:35;98284.22;;;20.86;40.44
75425;BME280;64007;50.632;13.700;2023-05-28T10:03:06;98283.69;;;21.05;39.75
75425;BME280;64007;50.632;13.700;2023-05-28T10:05:36;98286.41;;;21.20;40.08
75425;BME280;64007;50.632;13.700;2023-05-28T10:08:04;98278.53;;;21.48;39.87
75425;BME280;64007;50.632;13.700;2023-05-28T10:10:31;98280.03;;;21.65;38.89
75425;BME280;64007;50.632;13.700;2023-05-28T10:12:57;98273.22;;;21.69;40.56
75425;BME280;64007;50.632;13.700;2023-05-28T10:15:24;98272.50;;;21.97;38.59
75425;BME280;64007;50.632;13.700;2023-05-28T10:17:51;98276.31;;;22.17;40.38
75425;BME280;64007;50.632;13.700;2023-05-28T10:20:17;98275.69;;;22.36;38.62
75425;BME280;64007;50.632;13.700;2023-05-28T10:22:44;98267.72;;;22.49;38.49
75425;BME280;64007;50.632;13.700;2023-05-28T10:25:10;98263.97;;;21.78;34.99
75425;BME280;64007;50.632;13.700;2023-05-28T10:27:43;98264.88;;;21.85;39.36
75425;BME280;64007;50.632;13.700;2023-05-28T10:30:10;98267.09;;;21.97;38.80
75425;BME280;64007;50.632;13.700;2023-05-28T10:32:39;98266.81;;;21.92;36.56
75425;BME280;64007;50.632;13.700;2023-05-28T10:35:07;98265.09;;;21.69;38.76
75425;BME280;64007;50.632;13.700;2023-05-28T10:37:35;98257.78;;;21.84;38.92
75425;BME280;64007;50.632;13.700;2023-05-28T10:40:01;98261.66;;;21.97;39.88
75425;BME280;64007;50.632;13.700;2023-05-28T10:42:27;98261.50;;;22.13;39.94
75425;BME280;64007;50.632;13.700;2023-05-28T10:47:41;98252.47;;;22.27;40.07
75425;BME280;64007;50.632;13.700;2023-05-28T10:50:11;98251.72;;;22.55;38.03
75425;BME280;64007;50.632;13.700;2023-05-28T10:52:38;98242.13;;;22.80;37.67
75425;BME280;64007;50.632;13.700;2023-05-28T10:55:08;98237.03;;;22.70;36.35
75425;BME280;64007;50.632;13.700;2023-05-28T10:58:06;98245.72;;;23.08;36.84
75425;BME280;64007;50.632;13.700;2023-05-28T11:00:40;98234.81;;;23.02;36.51
75425;BME280;64007;50.632;13.700;2023-05-28T11:03:06;98235.41;;;22.97;36.51
75425;BME280;64007;50.632;13.700;2023-05-28T11:05:35;98227.69;;;22.94;36.00
75425;BME280;64007;50.632;13.700;2023-05-28T11:08:01;98224.63;;;23.04;38.00
75425;BME280;64007;50.632;13.700;2023-05-28T11:10:28;98220.59;;;23.28;38.46
75425;BME280;64007;50.632;13.700;2023-05-28T11:12:54;98222.09;;;23.30;38.13
75425;BME280;64007;50.632;13.700;2023-05-28T11:15:21;98236.66;;;23.57;37.90
75425;BME280;64007;50.632;13.700;2023-05-28T11:17:47;98238.50;;;23.98;38.40
75425;BME280;64007;50.632;13.700;2023-05-28T11:20:20;98233.03;;;24.52;37.15
75425;BME280;64007;50.632;13.700;2023-05-28T11:22:46;98228.66;;;25.04;36.08
75425;BME280;64007;50.632;13.700;2023-05-28T11:25:12;98230.88;;;25.67;35.66
75425;BME280;64007;50.632;13.700;2023-05-28T11:27:39;98225.03;;;25.43;33.80
75425;BME280;64007;50.632;13.700;2023-05-28T11:30:11;98226.78;;;25.05;34.63
75425;BME280;64007;50.632;13.700;2023-05-28T11:32:38;98223.41;;;24.76;34.32
75425;BME280;64007;50.632;13.700;2023-05-28T11:35:04;98208.56;;;24.72;33.66
75425;BME280;64007;50.632;13.700;2023-05-28T11:37:35;98207.94;;;24.57;33.96
75425;BME280;64007;50.632;13.700;2023-05-28T11:40:03;98211.91;;;25.14;33.45
75425;BME280;64007;50.632;13.700;2023-05-28T11:42:41;98206.03;;;25.30;33.72
75425;BME280;64007;50.632;13.700;2023-05-28T11:45:07;98208.31;;;25.33;35.25
75425;BME280;64007;50.632;13.700;2023-05-28T11:47:35;98214.19;;;25.17;32.75
75425;BME280;64007;50.632;13.700;2023-05-28T11:50:12;98202.81;;;25.46;36.30
75425;BME280;64007;50.632;13.700;2023-05-28T11:52:38;98214.53;;;25.67;34.26
75425;BME280;64007;50.632;13.700;2023-05-28T11:55:04;98201.63;;;26.25;34.79
75425;BME280;64007;50.632;13.700;2023-05-28T11:57:31;98204.47;;;27.43;31.58
75425;BME280;64007;50.632;13.700;2023-05-28T12:00:07;98209.09;;;28.69;33.13
75425;BME280;64007;50.632;13.700;2023-05-28T12:05:14;98194.84;;;30.01;25.32
75425;BME280;64007;50.632;13.700;2023-05-28T12:07:46;98194.75;;;29.67;25.88
75425;BME280;64007;50.632;13.700;2023-05-28T12:10:21;98190.50;;;29.24;27.11
75425;BME280;64007;50.632;13.700;2023-05-28T12:12:48;98186.41;;;29.39;28.27
75425;BME280;64007;50.632;13.700;2023-05-28T12:15:15;98187.72;;;30.56;28.94
75425;BME280;64007;50.632;13.700;2023-05-28T12:17:43;98192.81;;;31.54;27.83
75425;BME280;64007;50.632;13.700;2023-05-28T12:22:41;98189.53;;;32.76;23.71
75425;BME280;64007;50.632;13.700;2023-05-28T12:25:07;98184.91;;;32.50;24.03
75425;BME280;64007;50.632;13.700;2023-05-28T12:27:34;98183.31;;;33.23;24.48
75425;BME280;64007;50.632;13.700;2023-05-28T12:30:00;98180.84;;;32.57;22.90
75425;BME280;64007;50.632;13.700;2023-05-28T12:32:25;98185.16;;;32.21;25.28
75425;BME280;64007;50.632;13.700;2023-05-28T12:34:52;98180.16;;;31.31;24.27
75425;BME280;64007;50.632;13.700;2023-05-28T12:37:19;98173.63;;;32.24;24.72
75425;BME280;64007;50.632;13.700;2023-05-28T12:39:46;98162.28;;;32.43;22.80
75425;BME280;64007;50.632;13.700;2023-05-28T12:42:11;98166.59;;;32.65;24.16
75425;BME280;64007;50.632;13.700;2023-05-28T12:44:37;98173.22;;;32.96;23.65
75425;BME280;64007;50.632;13.700;2023-05-28T12:47:03;98175.22;;;34.06;24.79
75425;BME280;64007;50.632;13.700;2023-05-28T12:49:29;98173.97;;;35.00;22.90
75425;BME280;64007;50.632;13.700;2023-05-28T12:51:54;98167.75;;;35.69;18.55
75425;BME280;64007;50.632;13.700;2023-05-28T12:54:20;98172.59;;;36.07;20.76
75425;BME280;64007;50.632;13.700;2023-05-28T12:56:46;98172.94;;;36.40;20.28
75425;BME280;64007;50.632;13.700;2023-05-28T12:59:25;98163.53;;;35.92;19.26